createdAt,value
2022-12-13T08:57:17.634Z,19.92
2022-12-13T08:59:47.634Z,20.30
2022-12-13T09:02:18.464Z,18.87
2022-12-13T09:04:51.915Z,19.98
2022-12-13T09:07:21.609Z,20.08
2022-12-13T09:09:55.892Z,18.87
2022-12-13T09:12:31.177Z,19.12
2022-12-13T09:15:21.836Z,20.05
2022-12-13T09:17:42.467Z,19.42
2022-12-13T09:20:29.032Z,19.80
2022-12-13T09:22:45.291Z,21.55
2022-12-13T09:25:15.116Z,21.27
2022-12-13T09:27:45.478Z,22.07
2022-12-13T09:30:15.460Z,20.77
2022-12-13T09:32:50.299Z,22.10
2022-12-13T09:35:22.137Z,22.73
2022-12-13T09:37:52.457Z,20.80
2022-12-13T09:40:25.789Z,20.97
2022-12-13T09:43:12.447Z,21.27
2022-12-13T09:45:32.165Z,22.27
2022-12-13T09:48:01.955Z,24.25
2022-12-13T09:50:38.202Z,22.00
2022-12-13T09:53:11.907Z,23.80
2022-12-13T09:55:47.230Z,22.77
2022-12-13T09:58:28.517Z,23.12
2022-12-13T10:01:00.980Z,19.48
2022-12-13T10:03:33.035Z,20.92
2022-12-13T10:06:22.936Z,22.75
2022-12-13T10:08:58.895Z,21.50
2022-12-13T10:11:32.529Z,15.30
2022-12-13T10:14:14.098Z,14.98
2022-12-13T10:16:50.065Z,14.25
2022-12-13T10:19:28.927Z,14.50
2022-12-13T10:22:01.660Z,14.87
2022-12-13T10:24:36.999Z,15.28
2022-12-13T10:27:14.857Z,16.07
2022-12-13T10:30:14.330Z,17.35
2022-12-13T10:32:55.389Z,15.35
2022-12-13T10:35:36.281Z,16.50
2022-12-13T10:38:16.965Z,13.75
2022-12-13T10:40:47.497Z,14.30
2022-12-13T10:43:20.114Z,14.63
2022-12-13T10:46:01.111Z,14.23
2022-12-13T10:54:00.325Z,14.63
2022-12-13T10:56:37.537Z,15.45
2022-12-13T10:59:17.446Z,17.32
2022-12-13T11:01:45.423Z,15.30
2022-12-13T11:04:32.901Z,12.95
2022-12-13T11:07:27.893Z,11.93
2022-12-13T11:10:26.641Z,11.55
2022-12-13T11:13:05.725Z,11.83
2022-12-13T11:15:37.644Z,11.68
2022-12-13T11:18:11.659Z,12.30
2022-12-13T11:20:51.264Z,12.85
2022-12-13T11:23:35.444Z,16.52
2022-12-13T11:26:14.819Z,16.82
2022-12-13T11:29:32.767Z,16.02
2022-12-13T11:32:25.639Z,15.75
2022-12-13T11:35:03.475Z,15.63
2022-12-13T11:37:57.134Z,15.40
2022-12-13T11:40:46.114Z,13.85
2022-12-13T11:43:38.909Z,16.73
2022-12-13T11:46:19.224Z,13.18
2022-12-13T11:48:58.239Z,13.95
2022-12-13T11:51:37.643Z,15.63
2022-12-13T11:54:27.543Z,17.52
2022-12-13T11:57:00.542Z,16.48
2022-12-13T11:59:46.832Z,14.87
2022-12-13T12:02:35.569Z,14.30
2022-12-13T12:05:35.341Z,13.18
2022-12-13T12:08:33.622Z,13.50
2022-12-13T12:10:50.328Z,13.58
2022-12-13T12:13:25.967Z,13.60
2022-12-13T12:16:29.323Z,13.32
2022-12-13T12:19:01.625Z,13.25
2022-12-13T12:22:13.607Z,13.75
2022-12-13T12:25:00.744Z,13.15
2022-12-13T12:27:59.522Z,13.08
2022-12-13T12:30:48.749Z,16.02
2022-12-13T12:33:41.940Z,13.72
2022-12-13T12:36:25.361Z,15.23
2022-12-13T12:39:03.776Z,13.35
2022-12-13T12:42:00.357Z,14.78
2022-12-13T12:44:46.609Z,16.17
2022-12-13T12:50:45.250Z,20.27
2022-12-13T12:53:40.889Z,17.70
2022-12-13T12:56:48.663Z,17.23
2022-12-13T14:59:55.100Z,22.07
2022-12-13T15:02:31.336Z,16.70
2022-12-13T15:05:00.764Z,17.55
2022-12-13T15:07:44.317Z,17.17
2022-12-13T15:10:24.947Z,17.48
2022-12-13T15:12:54.777Z,15.18
2022-12-13T15:15:32.547Z,14.85
2022-12-13T15:18:18.924Z,14.85
2022-12-13T15:20:50.936Z,16.02
2022-12-13T15:23:40.226Z,19.80
2022-12-13T15:26:28.436Z,18.65
2022-12-13T15:28:49.995Z,17.82
2022-12-13T15:31:19.438Z,18.90
2022-12-13T15:33:49.138Z,18.42
2022-12-13T15:36:30.085Z,17.35
2022-12-13T15:39:07.306Z,17.32
2022-12-13T15:41:42.677Z,17.37
2022-12-13T15:44:29.276Z,16.35
2022-12-13T15:47:09.149Z,17.02
2022-12-13T15:49:42.470Z,15.32
2022-12-13T15:52:22.954Z,16.12
2022-12-13T15:55:09.218Z,15.80
2022-12-13T15:57:53.375Z,17.27
2022-12-13T16:00:30.207Z,17.75
2022-12-13T16:03:14.784Z,17.00
2022-12-13T16:05:51.501Z,17.83
2022-12-13T16:08:31.079Z,19.73
2022-12-13T16:10:59.794Z,19.40
2022-12-13T16:13:31.485Z,20.85
2022-12-13T16:16:28.274Z,20.55
2022-12-13T16:18:59.155Z,20.15
2022-12-13T16:21:30.374Z,18.23
2022-12-13T16:23:59.651Z,13.85
2022-12-13T16:26:28.952Z,14.98
2022-12-13T16:29:00.150Z,14.65
2022-12-13T16:31:32.335Z,14.75
2022-12-13T16:34:02.767Z,13.28
2022-12-13T16:36:32.060Z,12.88
2022-12-13T16:39:01.621Z,12.43
2022-12-13T16:41:30.798Z,13.13
2022-12-13T16:44:01.946Z,15.48
2022-12-13T16:47:16.775Z,12.53
2022-12-13T16:49:02.854Z,12.70
2022-12-13T16:51:32.202Z,12.58
2022-12-13T16:54:01.284Z,13.78
2022-12-13T16:56:30.461Z,12.90
2022-12-13T16:58:59.575Z,12.53
2022-12-13T17:01:29.210Z,12.33
2022-12-13T17:03:58.295Z,11.70
2022-12-13T17:06:29.334Z,13.60
2022-12-13T17:08:58.560Z,12.50
2022-12-13T17:11:28.879Z,13.48
2022-12-13T17:13:59.587Z,12.78
2022-12-13T17:16:28.997Z,14.03
2022-12-13T17:19:00.714Z,14.83
2022-12-13T17:21:30.815Z,12.68
2022-12-13T17:24:00.793Z,14.10
2022-12-13T17:26:29.754Z,11.85
2022-12-13T17:28:59.427Z,10.50
2022-12-13T17:31:34.993Z,9.73
2022-12-13T17:33:59.391Z,9.55
2022-12-13T17:36:30.626Z,10.48
2022-12-13T17:39:00.643Z,11.30
2022-12-13T17:41:30.141Z,11.75
2022-12-13T17:44:00.805Z,11.95
2022-12-13T17:46:30.546Z,10.00
2022-12-13T17:49:00.110Z,11.33
2022-12-13T17:51:29.313Z,9.58
2022-12-13T17:53:59.189Z,10.58
2022-12-13T17:56:27.863Z,9.60
2022-12-13T17:58:57.102Z,8.38
2022-12-13T18:01:26.435Z,9.10
2022-12-13T18:03:58.417Z,7.05
2022-12-13T18:06:27.581Z,6.92
2022-12-13T18:08:57.528Z,6.72
2022-12-13T18:11:35.294Z,7.35
2022-12-13T18:13:58.140Z,6.45
2022-12-13T18:16:35.837Z,5.97
2022-12-13T18:18:59.923Z,5.85
2022-12-13T18:21:29.252Z,5.75
2022-12-13T18:23:58.983Z,6.47
2022-12-13T18:26:28.863Z,8.18
2022-12-13T18:28:59.057Z,6.95
2022-12-13T18:31:28.184Z,6.33
2022-12-13T18:33:58.889Z,6.60
2022-12-13T18:36:30.701Z,6.37
2022-12-13T18:39:00.082Z,5.42
2022-12-13T18:41:30.494Z,5.03
2022-12-13T18:44:08.410Z,3.92
2022-12-13T18:46:39.306Z,3.52
2022-12-13T18:49:11.490Z,4.15
2022-12-13T18:51:40.335Z,3.80
2022-12-13T18:54:10.325Z,4.47
2022-12-13T18:56:39.811Z,4.87
2022-12-13T18:59:10.880Z,3.92
2022-12-13T19:01:40.044Z,4.80
2022-12-13T19:04:08.978Z,4.03
2022-12-13T19:06:38.982Z,4.50
2022-12-13T19:09:08.800Z,4.60
2022-12-13T19:11:38.127Z,4.37
2022-12-13T19:14:07.041Z,3.83
2022-12-13T19:16:36.861Z,3.75
2022-12-13T19:19:06.978Z,3.83
2022-12-13T19:21:35.685Z,3.60
2022-12-13T19:24:05.730Z,4.70
2022-12-13T19:26:36.851Z,5.65
2022-12-13T19:29:06.114Z,5.35
2022-12-13T19:31:35.635Z,6.08
2022-12-13T19:34:04.499Z,5.12
2022-12-13T19:36:35.078Z,4.90
2022-12-13T19:39:06.728Z,4.90
2022-12-13T19:41:38.323Z,4.40
2022-12-13T19:44:08.323Z,5.05
2022-12-13T19:46:40.346Z,5.17
2022-12-13T19:49:11.621Z,4.70
2022-12-13T19:51:42.706Z,5.05
2022-12-13T19:54:12.011Z,5.10
2022-12-13T19:56:41.064Z,5.55
2022-12-13T19:59:11.156Z,4.60
2022-12-13T20:01:40.004Z,4.40
2022-12-13T20:04:08.880Z,4.83
2022-12-13T20:06:38.022Z,4.45
2022-12-13T20:09:07.371Z,4.72
2022-12-13T20:11:37.577Z,5.42
2022-12-13T20:14:06.395Z,6.05
2022-12-13T20:16:35.498Z,5.62
2022-12-13T20:19:04.730Z,4.97
2022-12-13T20:21:34.419Z,5.10
2022-12-13T20:24:03.946Z,5.47
2022-12-13T20:26:33.335Z,5.67
2022-12-13T20:29:02.643Z,6.05
2022-12-13T20:31:33.934Z,5.35
2022-12-13T20:34:04.759Z,5.53
2022-12-13T20:36:34.768Z,6.08
2022-12-13T20:39:05.099Z,5.70
2022-12-13T20:41:35.455Z,4.87
2022-12-13T20:44:06.727Z,4.90
2022-12-13T20:46:38.410Z,5.28
2022-12-13T20:49:12.298Z,5.10
2022-12-13T20:51:41.872Z,5.10
2022-12-13T20:54:11.025Z,5.72
2022-12-13T20:56:41.421Z,5.10
2022-12-13T20:59:12.202Z,5.50
2022-12-13T21:01:42.029Z,5.28
2022-12-13T21:04:11.837Z,5.08
2022-12-13T21:06:41.309Z,5.25
2022-12-13T21:09:10.376Z,5.72
2022-12-13T21:11:46.571Z,5.83
2022-12-13T21:14:22.232Z,5.17
2022-12-13T21:16:53.359Z,5.15
2022-12-13T21:19:25.234Z,5.35
2022-12-13T21:21:54.579Z,4.83
2022-12-13T21:24:26.105Z,5.15
2022-12-13T21:26:59.539Z,5.58
2022-12-13T21:29:28.528Z,5.83
2022-12-13T21:31:57.558Z,6.03
2022-12-13T21:34:27.061Z,6.70
2022-12-13T21:36:56.291Z,9.13
2022-12-13T21:39:31.137Z,7.70
2022-12-13T21:42:01.428Z,5.63
2022-12-13T21:44:31.928Z,7.33
2022-12-13T21:47:16.871Z,7.45
2022-12-13T21:49:32.983Z,7.28
2022-12-13T21:52:02.061Z,6.60
2022-12-13T21:54:31.291Z,5.50
2022-12-13T21:57:18.918Z,6.37
2022-12-13T22:02:18.856Z,5.08
2022-12-13T22:04:53.375Z,5.35
2022-12-13T22:07:32.302Z,5.58
2022-12-13T22:10:01.279Z,5.05
2022-12-13T22:12:40.436Z,5.58
2022-12-13T22:15:12.864Z,5.75
2022-12-13T22:17:43.064Z,5.62
2022-12-13T22:20:13.933Z,5.30
2022-12-13T22:22:43.888Z,4.90
2022-12-13T22:25:14.223Z,5.58
2022-12-13T22:27:43.008Z,5.15
2022-12-13T22:30:13.621Z,4.97
2022-12-13T22:32:42.618Z,4.62
2022-12-13T22:35:14.678Z,4.70
2022-12-13T22:37:45.006Z,5.17
2022-12-13T22:40:16.473Z,4.85
2022-12-13T22:42:48.353Z,4.72
2022-12-13T22:45:17.560Z,5.00
2022-12-13T22:47:47.676Z,4.87
2022-12-13T22:50:16.908Z,5.00
2022-12-13T22:52:48.268Z,4.75
2022-12-13T22:55:18.003Z,5.00
2022-12-13T22:57:48.543Z,5.20
2022-12-13T23:00:18.641Z,4.70
2022-12-13T23:02:47.668Z,5.45
2022-12-13T23:05:18.095Z,5.12
2022-12-13T23:07:48.532Z,4.87
2022-12-13T23:10:37.257Z,5.62
2022-12-13T23:13:09.649Z,5.30
2022-12-13T23:15:42.340Z,5.83
2022-12-13T23:18:11.447Z,5.17
2022-12-13T23:20:41.087Z,6.10
2022-12-13T23:23:10.141Z,5.90
2022-12-13T23:25:39.085Z,6.00
2022-12-13T23:28:08.815Z,6.55
2022-12-13T23:30:38.261Z,6.25
2022-12-13T23:33:08.476Z,5.83
2022-12-13T23:35:38.513Z,5.90
2022-12-13T23:38:07.363Z,6.05
2022-12-13T23:40:36.526Z,6.55
2022-12-13T23:43:05.333Z,6.33
2022-12-13T23:45:35.972Z,6.53
2022-12-13T23:48:05.823Z,6.33
2022-12-13T23:50:35.640Z,5.72
2022-12-13T23:53:06.136Z,6.50
2022-12-13T23:55:37.254Z,6.75
2022-12-13T23:58:07.039Z,6.85
